createdAt,value
2023-11-23T00:02:20.306Z,100.00
2023-11-23T00:06:21.977Z,100.00
2023-11-23T00:10:23.544Z,100.00
2023-11-23T00:14:26.613Z,100.00
2023-11-23T00:18:28.113Z,100.00
2023-11-23T00:22:29.734Z,100.00
2023-11-23T00:26:31.377Z,100.00
2023-11-23T00:30:34.277Z,100.00
2023-11-23T00:34:35.874Z,100.00
2023-11-23T00:38:37.520Z,100.00
2023-11-23T00:42:39.146Z,100.00
2023-11-23T00:46:42.083Z,100.00
2023-11-23T00:50:43.542Z,100.00
2023-11-23T00:54:45.114Z,100.00
2023-11-23T00:58:46.692Z,100.00
2023-11-23T01:02:49.805Z,99.96
2023-11-23T01:06:51.469Z,100.00
2023-11-23T01:10:53.024Z,100.00
2023-11-23T01:14:54.610Z,99.98
2023-11-23T01:18:57.559Z,99.76
2023-11-23T01:22:59.111Z,99.96
2023-11-23T01:27:00.698Z,99.86
2023-11-23T01:31:02.277Z,99.30
2023-11-23T01:35:06.449Z,98.78
2023-11-23T01:39:08.040Z,98.30
2023-11-23T01:43:09.643Z,97.86
2023-11-23T01:47:14.033Z,98.94
2023-11-23T01:51:18.287Z,98.62
2023-11-23T01:55:20.065Z,97.54
2023-11-23T01:59:21.685Z,97.76
2023-11-23T02:03:23.474Z,98.14
2023-11-23T02:07:26.469Z,98.39
2023-11-23T02:11:27.945Z,98.19
2023-11-23T02:15:29.601Z,98.11
2023-11-23T02:19:31.168Z,98.66
2023-11-23T02:23:34.133Z,97.65
2023-11-23T02:27:36.896Z,97.71
2023-11-23T02:31:38.730Z,97.87
2023-11-23T02:35:40.402Z,96.98
2023-11-23T02:39:42.180Z,98.05
2023-11-23T02:43:45.376Z,96.23
2023-11-23T02:47:47.039Z,95.92
2023-11-23T02:51:48.661Z,96.42
2023-11-23T02:55:50.201Z,97.09
2023-11-23T02:59:53.209Z,97.07
2023-11-23T03:03:55.574Z,96.86
2023-11-23T03:07:57.201Z,97.58
2023-11-23T03:11:59.820Z,96.06
2023-11-23T03:16:02.784Z,95.40
2023-11-23T03:20:04.488Z,95.56
2023-11-23T03:24:06.693Z,95.62
2023-11-23T03:28:08.283Z,95.26
2023-11-23T03:32:11.430Z,94.31
2023-11-23T03:36:13.064Z,94.64
2023-11-23T03:40:14.752Z,93.50
2023-11-23T03:44:16.323Z,94.30
2023-11-23T03:48:19.723Z,93.63
2023-11-23T03:52:21.311Z,93.56
2023-11-23T03:56:22.880Z,93.05
2023-11-23T04:00:24.531Z,93.72
2023-11-23T04:04:27.498Z,93.31
2023-11-23T04:08:28.921Z,93.11
2023-11-23T04:12:30.489Z,94.21
2023-11-23T04:16:32.118Z,93.96
2023-11-23T04:20:35.046Z,94.12
2023-11-23T04:24:37.961Z,95.08
2023-11-23T04:28:40.713Z,97.46
2023-11-23T04:32:42.246Z,96.66
2023-11-23T04:36:45.192Z,93.85
2023-11-23T04:40:46.639Z,95.08
2023-11-23T04:44:48.297Z,96.10
2023-11-23T04:48:50.033Z,92.90
2023-11-23T04:52:53.009Z,94.76
2023-11-23T04:56:54.583Z,94.91
2023-11-23T05:00:56.280Z,94.02
2023-11-23T05:04:57.914Z,95.45
2023-11-23T05:09:00.903Z,94.86
2023-11-23T05:13:02.354Z,93.86
2023-11-23T05:17:04.322Z,95.64
2023-11-23T05:21:06.106Z,94.42
2023-11-23T05:25:09.443Z,94.75
2023-11-23T05:29:10.993Z,94.40
2023-11-23T05:33:12.799Z,95.73
2023-11-23T05:37:14.380Z,94.65
2023-11-23T05:41:17.282Z,95.32
2023-11-23T05:45:18.709Z,95.98
2023-11-23T05:49:20.352Z,95.33
2023-11-23T05:53:21.901Z,95.86
2023-11-23T05:57:25.212Z,95.17
2023-11-23T06:01:26.783Z,94.77
2023-11-23T06:05:28.475Z,96.57
2023-11-23T06:09:30.324Z,98.03
2023-11-23T06:13:33.239Z,98.74
2023-11-23T06:17:34.647Z,99.43
2023-11-23T06:21:36.256Z,98.40
2023-11-23T06:25:37.841Z,99.66
2023-11-23T06:29:40.779Z,100.00
2023-11-23T06:33:42.247Z,100.00
2023-11-23T06:37:43.835Z,100.00
2023-11-23T06:41:45.396Z,100.00
2023-11-23T06:45:48.569Z,100.00
2023-11-23T06:49:50.154Z,100.00
2023-11-23T06:53:51.736Z,100.00
2023-11-23T06:57:53.331Z,100.00
2023-11-23T07:01:56.332Z,100.00
2023-11-23T07:05:57.966Z,100.00
2023-11-23T07:09:59.569Z,100.00
2023-11-23T07:14:01.189Z,100.00
2023-11-23T07:18:04.290Z,100.00
2023-11-23T07:22:06.158Z,100.00
2023-11-23T07:26:07.778Z,100.00
2023-11-23T07:30:10.310Z,100.00
2023-11-23T07:34:13.250Z,100.00
2023-11-23T07:38:16.264Z,100.00
2023-11-23T07:42:18.957Z,100.00
2023-11-23T07:46:22.984Z,100.00
2023-11-23T07:50:26.569Z,99.65
2023-11-23T07:54:28.037Z,100.00
2023-11-23T07:58:29.679Z,99.88
2023-11-23T08:02:31.545Z,100.00
2023-11-23T08:06:34.503Z,100.00
2023-11-23T08:10:35.979Z,99.73
2023-11-23T08:14:37.549Z,100.00
2023-11-23T08:18:43.665Z,99.18
2023-11-23T08:22:52.593Z,99.17
2023-11-23T08:26:54.089Z,99.14
2023-11-23T08:30:55.744Z,98.09
2023-11-23T08:34:57.351Z,98.56
2023-11-23T08:39:00.390Z,96.97
2023-11-23T08:43:02.004Z,96.75
2023-11-23T08:47:04.384Z,97.20
2023-11-23T08:51:06.637Z,95.59
2023-11-23T08:55:10.367Z,93.90
2023-11-23T08:59:11.957Z,94.44
2023-11-23T09:03:13.736Z,93.60
2023-11-23T09:07:15.439Z,93.41
2023-11-23T09:11:18.428Z,93.46
2023-11-23T09:19:21.429Z,91.76
2023-11-23T09:23:23.018Z,90.25
2023-11-23T09:27:25.994Z,91.60
2023-11-23T09:31:27.449Z,90.44
2023-11-23T09:35:28.994Z,89.62
2023-11-23T09:39:30.631Z,89.10
2023-11-23T09:43:34.730Z,89.41
2023-11-23T09:47:36.559Z,89.72
2023-11-23T09:51:38.866Z,90.76
2023-11-23T09:55:40.689Z,88.56
2023-11-23T09:59:43.592Z,89.21
2023-11-23T10:03:53.688Z,87.56
2023-11-23T10:07:55.465Z,87.11
2023-11-23T10:11:57.173Z,86.59
2023-11-23T10:16:02.805Z,87.46
2023-11-23T10:20:08.853Z,87.33
2023-11-23T10:24:10.648Z,86.58
2023-11-23T10:28:12.271Z,85.77
2023-11-23T10:32:16.702Z,86.85
2023-11-23T10:36:19.076Z,86.26
2023-11-23T10:40:21.241Z,86.39
2023-11-23T10:44:22.860Z,85.63
2023-11-23T10:48:26.069Z,85.95
2023-11-23T10:52:27.781Z,86.85
2023-11-23T10:56:31.315Z,86.78
2023-11-23T11:00:33.504Z,87.35
2023-11-23T11:04:36.859Z,86.40
2023-11-23T11:08:43.954Z,87.18
2023-11-23T11:12:47.584Z,86.71
2023-11-23T11:17:01.160Z,86.91
2023-11-23T11:21:08.752Z,86.45
2023-11-23T11:25:14.916Z,86.48
2023-11-23T11:29:17.662Z,87.32
2023-11-23T11:33:24.758Z,88.34
2023-11-23T11:37:30.747Z,87.62
2023-11-23T11:41:33.734Z,87.88
2023-11-23T11:45:35.407Z,88.67
2023-11-23T11:49:37.061Z,90.21
2023-11-23T11:53:40.108Z,89.36
2023-11-23T11:57:41.706Z,89.26
2023-11-23T12:01:43.438Z,88.85
2023-11-23T12:05:45.111Z,89.11
2023-11-23T12:09:55.378Z,89.57
2023-11-23T12:13:57.187Z,89.73
2023-11-23T12:17:58.872Z,89.65
2023-11-23T12:22:00.543Z,90.66
2023-11-23T12:26:03.578Z,89.74
2023-11-23T12:30:05.663Z,89.15
2023-11-23T12:34:07.234Z,88.71
2023-11-23T12:38:09.253Z,89.23
2023-11-23T12:42:12.347Z,89.03
2023-11-23T12:46:13.935Z,87.98
2023-11-23T12:50:15.620Z,88.33
2023-11-23T12:54:17.228Z,88.81
2023-11-23T12:58:20.193Z,89.42
2023-11-23T13:02:21.853Z,89.29
2023-11-23T13:06:23.546Z,89.26
2023-11-23T13:10:25.258Z,88.46
2023-11-23T13:14:28.186Z,88.46
2023-11-23T13:18:47.653Z,89.60
2023-11-23T13:22:52.010Z,90.18
2023-11-23T13:26:53.608Z,90.23
2023-11-23T13:30:56.552Z,90.06
2023-11-23T13:34:58.168Z,90.32
2023-11-23T13:38:59.721Z,90.02
2023-11-23T13:43:01.321Z,90.38
2023-11-23T13:47:04.776Z,90.36
2023-11-23T13:51:06.600Z,90.37
2023-11-23T13:55:08.355Z,90.18
2023-11-23T13:59:10.057Z,90.41
2023-11-23T14:03:13.109Z,90.21
2023-11-23T14:07:14.600Z,90.04
2023-11-23T14:11:16.186Z,90.52
2023-11-23T14:15:18.004Z,90.43
2023-11-23T14:19:21.045Z,89.97
2023-11-23T14:23:22.668Z,90.57
2023-11-23T14:27:24.890Z,90.76
2023-11-23T14:31:27.128Z,90.97
2023-11-23T14:35:30.068Z,91.08
2023-11-23T14:39:31.696Z,91.03
2023-11-23T14:43:33.339Z,91.05
2023-11-23T14:47:34.916Z,91.38
2023-11-23T14:51:37.897Z,91.78
2023-11-23T14:55:39.475Z,91.71
2023-11-23T14:59:41.310Z,91.69
2023-11-23T15:03:42.927Z,92.32
2023-11-23T15:07:46.376Z,92.36
2023-11-23T15:11:48.703Z,92.73
2023-11-23T15:15:50.390Z,92.54
2023-11-23T15:19:52.054Z,93.16
2023-11-23T15:23:54.974Z,93.41
2023-11-23T15:27:56.560Z,93.52
2023-11-23T15:31:58.137Z,93.90
2023-11-23T15:35:59.717Z,95.28
2023-11-23T15:40:02.700Z,94.81
2023-11-23T15:44:04.840Z,95.99
2023-11-23T15:48:06.799Z,96.29
2023-11-23T15:52:08.435Z,96.99
2023-11-23T15:56:15.736Z,97.59
2023-11-23T16:00:17.679Z,98.57
2023-11-23T16:04:19.458Z,98.35
2023-11-23T16:08:21.155Z,98.75
2023-11-23T16:12:24.079Z,98.71
2023-11-23T16:16:25.698Z,99.36
2023-11-23T16:20:27.249Z,99.80
2023-11-23T16:24:29.045Z,100.00
2023-11-23T16:28:31.999Z,100.00
2023-11-23T16:32:33.601Z,100.00
2023-11-23T16:36:39.635Z,100.00
2023-11-23T16:40:42.012Z,100.00
2023-11-23T16:44:44.928Z,100.00
2023-11-23T16:48:46.630Z,100.00
2023-11-23T16:52:48.245Z,100.00
2023-11-23T16:56:49.830Z,100.00
2023-11-23T17:00:53.168Z,100.00
2023-11-23T17:04:56.141Z,100.00
2023-11-23T17:08:59.043Z,100.00
2023-11-23T17:13:00.686Z,100.00
2023-11-23T17:17:03.919Z,100.00
2023-11-23T17:21:06.383Z,100.00
2023-11-23T17:25:09.377Z,100.00
2023-11-23T17:29:11.377Z,100.00
2023-11-23T17:33:14.745Z,100.00
2023-11-23T17:37:16.707Z,100.00
2023-11-23T17:41:18.614Z,100.00
2023-11-23T17:45:20.495Z,100.00
2023-11-23T17:49:23.634Z,100.00
2023-11-23T17:53:25.037Z,100.00
2023-11-23T17:57:26.744Z,100.00
2023-11-23T18:01:28.535Z,100.00
2023-11-23T18:05:31.668Z,100.00
2023-11-23T18:09:33.401Z,100.00
2023-11-23T18:13:35.286Z,100.00
2023-11-23T18:17:37.208Z,100.00
2023-11-23T18:21:40.203Z,100.00
2023-11-23T18:25:41.815Z,100.00
2023-11-23T18:29:43.756Z,100.00
2023-11-23T18:33:45.400Z,100.00
2023-11-23T18:37:48.393Z,100.00
2023-11-23T18:41:50.045Z,100.00
2023-11-23T18:45:51.674Z,100.00
2023-11-23T18:49:53.277Z,100.00
2023-11-23T18:53:56.174Z,100.00
2023-11-23T18:57:57.849Z,100.00
2023-11-23T19:01:59.542Z,100.00
2023-11-23T19:06:01.318Z,100.00
2023-11-23T19:10:04.866Z,100.00
2023-11-23T19:14:06.532Z,100.00
2023-11-23T19:18:09.153Z,100.00
2023-11-23T19:22:11.318Z,100.00
2023-11-23T19:26:15.385Z,100.00
2023-11-23T19:30:18.088Z,100.00
2023-11-23T19:34:20.322Z,100.00
2023-11-23T19:38:22.856Z,100.00
2023-11-23T19:42:27.724Z,100.00
2023-11-23T19:46:29.873Z,100.00
2023-11-23T19:50:31.922Z,100.00
2023-11-23T19:54:33.552Z,100.00
2023-11-23T19:58:36.500Z,100.00
2023-11-23T20:02:38.348Z,100.00
2023-11-23T20:06:40.109Z,100.00
2023-11-23T20:10:45.083Z,100.00
2023-11-23T20:14:48.842Z,100.00
2023-11-23T20:18:50.430Z,100.00
2023-11-23T20:22:52.123Z,100.00
2023-11-23T20:26:53.850Z,100.00
2023-11-23T20:30:56.806Z,100.00
2023-11-23T20:34:58.435Z,100.00
2023-11-23T20:39:00.101Z,100.00
2023-11-23T20:43:01.703Z,100.00
2023-11-23T20:47:04.879Z,100.00
2023-11-23T20:51:06.319Z,100.00
2023-11-23T20:55:09.168Z,100.00
2023-11-23T20:59:11.438Z,100.00
2023-11-23T21:03:15.202Z,100.00
2023-11-23T21:07:17.566Z,100.00
2023-11-23T21:11:19.499Z,100.00
2023-11-23T21:15:21.786Z,100.00
2023-11-23T21:19:24.807Z,100.00
2023-11-23T21:23:26.475Z,100.00
2023-11-23T21:27:28.239Z,100.00
2023-11-23T21:31:29.850Z,100.00
2023-11-23T21:35:32.762Z,100.00
2023-11-23T21:39:34.353Z,100.00
2023-11-23T21:43:35.926Z,100.00
2023-11-23T21:47:39.783Z,100.00
2023-11-23T21:51:43.006Z,100.00
2023-11-23T21:55:44.566Z,100.00
2023-11-23T21:59:46.129Z,100.00
2023-11-23T22:03:51.374Z,100.00
2023-11-23T22:07:54.771Z,100.00
2023-11-23T22:11:56.343Z,100.00
2023-11-23T22:15:58.217Z,100.00
2023-11-23T22:20:00.215Z,100.00
2023-11-23T22:24:03.760Z,100.00
2023-11-23T22:28:06.566Z,100.00
2023-11-23T22:32:10.125Z,100.00
2023-11-23T22:36:12.839Z,100.00
2023-11-23T22:40:17.081Z,100.00
2023-11-23T22:44:19.261Z,100.00
2023-11-23T22:48:20.828Z,100.00
2023-11-23T22:52:22.378Z,100.00
2023-11-23T22:56:25.309Z,100.00
2023-11-23T23:00:27.186Z,100.00
2023-11-23T23:04:28.807Z,100.00
2023-11-23T23:08:30.416Z,100.00
2023-11-23T23:12:33.340Z,100.00
2023-11-23T23:16:34.938Z,100.00
2023-11-23T23:20:36.505Z,100.00
2023-11-23T23:24:38.091Z,100.00
2023-11-23T23:28:41.077Z,100.00
2023-11-23T23:32:44.080Z,100.00
2023-11-23T23:36:45.521Z,100.00
2023-11-23T23:40:47.199Z,100.00
2023-11-23T23:44:50.118Z,100.00
2023-11-23T23:48:51.735Z,100.00
2023-11-23T23:52:53.415Z,100.00
2023-11-23T23:56:55.081Z,100.00
